Time;durP1;ratioP1;P1;durP2;ratioP2;P2;SDS_P1;SDS_P2;PMS_P1;PMS_P2;Temp;Humidity;BMP_temperature;BMP_pressure;BME280_temperature;BME280_humidity;BME280_pressure;Samples;Min_cycle;Max_cycle;Signal;HPM_P1;HPM_P2
2023/08/22 00:00:07;;;;;;;1.93;0.60;;;;;;;26.85;50.95;101251.16;5050948;28;20384;-70
2023/08/22 00:02:33;;;;;;;2.00;0.60;;;;;;;26.91;50.91;101256.63;5053521;28;20387;-70
2023/08/22 00:04:58;;;;;;;2.20;0.70;;;;;;;26.93;50.59;101254.47;5053297;28;20491;-70
2023/08/22 00:07:24;;;;;;;1.53;0.60;;;;;;;26.87;50.60;101246.28;5053303;28;20412;-70
2023/08/22 00:09:49;;;;;;;1.67;0.50;;;;;;;26.99;50.25;101256.09;5053379;28;20384;-70
2023/08/22 00:12:15;;;;;;;1.75;0.60;;;;;;;27.00;50.07;101255.03;5052987;28;20392;-70
2023/08/22 00:14:40;;;;;;;2.23;0.70;;;;;;;26.97;50.44;101258.28;5053431;28;20748;-70
2023/08/22 00:17:08;;;;;;;1.60;0.60;;;;;;;26.93;50.39;101255.25;5053226;28;20392;-70
2023/08/22 00:19:35;;;;;;;1.90;0.70;;;;;;;26.87;50.57;101256.34;5053291;28;20389;-71
2023/08/22 00:22:01;;;;;;;1.87;0.53;;;;;;;26.88;50.31;101249.81;5053192;28;20384;-71
2023/08/22 00:24:27;;;;;;;1.55;0.50;;;;;;;26.93;50.22;101252.53;5052810;28;20392;-71
2023/08/22 00:26:55;;;;;;;1.50;0.43;;;;;;;27.01;50.18;101256.66;5052844;28;20857;-70
2023/08/22 00:29:21;;;;;;;1.90;0.70;;;;;;;27.00;50.17;101253.13;5052814;28;20405;-71
2023/08/22 00:31:46;;;;;;;1.55;0.50;;;;;;;27.02;49.82;101244.69;5054924;28;20758;-70
2023/08/22 00:34:12;;;;;;;2.23;0.67;;;;;;;26.96;50.26;101256.66;5053002;28;20479;-71
2023/08/22 00:36:37;;;;;;;2.17;0.70;;;;;;;26.94;50.14;101256.06;5052625;28;20389;-71
2023/08/22 00:39:05;;;;;;;1.63;0.50;;;;;;;27.07;50.03;101266.47;5051795;28;20419;-71
2023/08/22 00:41:31;;;;;;;2.13;0.80;;;;;;;27.10;49.78;101255.06;5052091;28;20547;-71
2023/08/22 00:43:56;;;;;;;1.60;0.50;;;;;;;27.11;49.42;101261.31;5052689;28;20464;-71
2023/08/22 00:46:23;;;;;;;2.07;0.50;;;;;;;27.07;49.83;101250.97;5052063;28;20861;-71
2023/08/22 00:48:49;;;;;;;1.23;0.50;;;;;;;27.01;49.98;101256.66;5051957;28;20754;-71
2023/08/22 00:51:16;;;;;;;1.10;0.40;;;;;;;27.05;49.64;101263.22;5052477;28;20848;-70
2023/08/22 00:53:42;;;;;;;2.45;0.70;;;;;;;27.13;49.68;101268.13;5052313;28;20387;-71
2023/08/22 00:56:08;;;;;;;1.67;0.53;;;;;;;27.13;49.50;101261.88;5052398;28;20380;-71
2023/08/22 00:58:35;;;;;;;2.17;0.60;;;;;;;27.13;49.28;101270.84;5052034;28;20829;-71
2023/08/22 01:01:02;;;;;;;1.05;0.40;;;;;;;27.05;49.56;101265.94;5052209;28;20389;-71
2023/08/22 01:03:28;;;;;;;1.80;0.50;;;;;;;26.80;50.55;101258.50;5052823;28;20710;-71
2023/08/22 01:06:26;;;;;;;2.30;0.70;;;;;;;26.69;50.70;101263.88;5051918;28;20864;-71
2023/08/22 01:09:11;;;;;;;1.70;0.50;;;;;;;26.69;50.82;101263.88;5035916;28;20399;-71
2023/08/22 01:11:41;;;;;;;1.33;0.50;;;;;;;26.59;50.93;101268.41;5051366;28;20385;-71
2023/08/22 01:14:11;;;;;;;1.77;0.60;;;;;;;26.47;51.23;101265.88;5052148;28;20369;-71
2023/08/22 01:16:36;;;;;;;1.65;0.60;;;;;;;26.13;52.76;101261.63;5051293;28;20426;-71
2023/08/22 01:19:05;;;;;;;1.95;0.60;;;;;;;26.06;52.94;101262.94;5051817;28;20396;-71
2023/08/22 01:21:35;;;;;;;1.88;0.57;;;;;;;26.11;52.85;101258.34;5051474;28;20395;-71
2023/08/22 01:24:03;;;;;;;1.77;0.50;;;;;;;26.24;52.18;101265.22;5052273;28;20383;-71
2023/08/22 01:26:29;;;;;;;1.65;0.52;;;;;;;26.22;52.22;101258.44;5051426;28;20440;-71
2023/08/22 01:29:01;;;;;;;2.30;0.70;;;;;;;26.23;52.04;101257.31;5051783;28;20385;-71
2023/08/22 01:31:36;;;;;;;1.48;0.50;;;;;;;26.21;52.25;101264.94;5052720;28;20412;-71
2023/08/22 01:34:29;;;;;;;1.50;0.52;;;;;;;26.08;52.49;101263.47;5051793;28;20397;-71
2023/08/22 01:36:57;;;;;;;1.77;0.70;;;;;;;26.11;52.31;101258.34;5051109;28;20783;-71
2023/08/22 01:39:25;;;;;;;2.05;0.70;;;;;;;26.08;52.30;101267.00;5051277;28;20392;-71
2023/08/22 01:41:51;;;;;;;2.17;0.70;;;;;;;25.86;53.04;101261.66;5046307;28;20378;-71
2023/08/22 01:44:16;;;;;;;0.70;0.30;;;;;;;25.84;53.24;101266.53;5042185;28;20702;-70
2023/08/22 01:46:42;;;;;;;2.15;0.80;;;;;;;25.80;53.28;101267.28;5066116;28;20404;-71
2023/08/22 01:49:07;;;;;;;1.27;0.50;;;;;;;25.78;53.10;101264.03;5053143;28;20887;-71
2023/08/22 01:51:33;;;;;;;1.10;0.43;;;;;;;25.79;53.35;101273.81;5050670;28;20373;-71
2023/08/22 01:53:58;;;;;;;1.17;0.40;;;;;;;25.76;53.48;101275.13;5050419;28;20461;-70
2023/08/22 01:56:24;;;;;;;1.05;0.50;;;;;;;25.67;53.57;101257.69;5050661;28;20365;-70
2023/08/22 01:58:50;;;;;;;1.53;0.60;;;;;;;25.65;53.78;101270.69;5052140;28;20379;-71
2023/08/22 02:01:15;;;;;;;0.57;0.40;;;;;;;25.58;53.88;101262.75;5051764;28;20381;-71
2023/08/22 02:03:41;;;;;;;1.17;0.45;;;;;;;25.57;54.02;101266.56;5051508;28;20372;-71
2023/08/22 02:06:08;;;;;;;0.90;0.30;;;;;;;25.49;54.17;101270.53;5050961;28;20827;-70
2023/08/22 02:08:33;;;;;;;1.15;0.35;;;;;;;25.54;54.13;101270.59;5051961;28;20420;-70
2023/08/22 02:10:59;;;;;;;2.17;0.63;;;;;;;25.52;54.06;101274.66;5051460;28;20785;-71
2023/08/22 02:13:25;;;;;;;1.13;0.40;;;;;;;25.52;53.99;101272.75;5051869;28;20385;-71
2023/08/22 02:15:50;;;;;;;1.27;0.60;;;;;;;25.49;54.24;101275.16;5051883;28;20399;-71
2023/08/22 02:18:16;;;;;;;1.45;0.60;;;;;;;25.52;54.19;101263.81;5051875;28;20543;-71
2023/08/22 02:20:42;;;;;;;0.93;0.40;;;;;;;25.50;54.06;101269.47;5051658;28;20411;-71
2023/08/22 02:23:08;;;;;;;1.40;0.70;;;;;;;25.55;54.00;101271.41;5051725;28;20428;-71
2023/08/22 02:25:33;;;;;;;1.08;0.60;;;;;;;25.51;54.01;101265.69;5052083;28;20457;-71
2023/08/22 02:27:59;;;;;;;1.00;0.40;;;;;;;25.58;53.80;101273.63;5052094;28;20463;-71
2023/08/22 02:30:25;;;;;;;1.00;0.40;;;;;;;25.53;54.03;101274.41;5051806;28;20389;-71
2023/08/22 02:32:50;;;;;;;1.20;0.60;;;;;;;25.50;54.12;101274.09;5051794;28;20679;-71
2023/08/22 02:35:16;;;;;;;1.70;0.65;;;;;;;25.48;54.09;101273.50;5051007;28;20373;-71
2023/08/22 02:37:42;;;;;;;1.40;0.50;;;;;;;25.50;54.12;101279.53;5033666;28;20380;-71
2023/08/22 02:40:11;;;;;;;1.47;0.60;;;;;;;25.48;54.17;101281.66;5051321;28;20733;-71
2023/08/22 02:42:36;;;;;;;1.65;0.52;;;;;;;25.51;54.10;101275.72;5042988;28;20710;-71
2023/08/22 02:45:03;;;;;;;1.92;0.70;;;;;;;25.46;54.22;101281.09;5035745;28;20865;-71
2023/08/22 02:47:29;;;;;;;2.28;0.60;;;;;;;25.43;54.36;101279.72;5037331;28;20412;-71
2023/08/22 02:49:55;;;;;;;1.50;0.60;;;;;;;25.41;54.43;101284.59;5038867;28;20401;-71
2023/08/22 02:52:20;;;;;;;1.30;0.50;;;;;;;25.29;54.80;101290.16;5047113;28;20431;-71
2023/08/22 02:54:46;;;;;;;2.03;0.60;;;;;;;25.07;55.55;101286.63;5049110;28;20372;-71
2023/08/22 02:57:11;;;;;;;1.50;1.00;;;;;;;25.09;55.25;101285.28;5049322;28;20369;-70
2023/08/22 02:59:37;;;;;;;1.63;0.65;;;;;;;25.13;55.36;101291.03;5049170;28;20381;-71
2023/08/22 03:02:03;;;;;;;1.10;0.43;;;;;;;25.03;55.65;101282.75;5049459;28;20526;-71
2023/08/22 03:04:30;;;;;;;1.60;0.73;;;;;;;25.07;55.67;101290.16;5050396;28;20499;-72
2023/08/22 03:06:55;;;;;;;1.27;0.60;;;;;;;25.15;55.25;101297.00;5050703;28;20408;-71
2023/08/22 03:09:21;;;;;;;0.80;0.43;;;;;;;25.15;55.17;101297.00;5050801;28;20377;-71
2023/08/22 03:11:47;;;;;;;1.33;0.60;;;;;;;25.22;55.07;101303.06;5050922;28;20408;-71
2023/08/22 03:14:13;;;;;;;1.27;0.60;;;;;;;25.07;55.44;101297.47;5050807;28;20431;-71
2023/08/22 03:16:38;;;;;;;1.58;0.50;;;;;;;25.10;55.36;101296.94;5050786;28;20372;-71
2023/08/22 03:19:04;;;;;;;1.20;0.57;;;;;;;25.13;55.02;101299.16;5050359;28;20385;-70
2023/08/22 03:21:29;;;;;;;1.97;1.10;;;;;;;25.05;55.32;101294.16;5050669;28;20662;-70
2023/08/22 03:23:55;;;;;;;1.27;0.50;;;;;;;24.96;55.62;101299.25;5033069;28;20745;-71
2023/08/22 03:26:20;;;;;;;1.80;0.60;;;;;;;25.04;55.44;101300.69;5050444;28;20495;-70
2023/08/22 03:28:46;;;;;;;1.60;0.60;;;;;;;25.00;55.63;101303.91;5050558;28;20385;-70
2023/08/22 03:31:11;;;;;;;1.40;0.60;;;;;;;24.98;55.34;101306.03;5050718;28;20373;-70
2023/08/22 03:33:37;;;;;;;1.10;0.40;;;;;;;25.03;55.47;101316.16;5050289;28;20537;-70
2023/08/22 03:36:03;;;;;;;1.63;0.70;;;;;;;25.02;55.41;101311.78;5050659;28;20490;-71
2023/08/22 03:38:29;;;;;;;1.17;0.50;;;;;;;25.03;55.38;101323.44;5050276;28;20376;-70
2023/08/22 03:40:56;;;;;;;1.38;0.50;;;;;;;25.07;55.23;101322.69;5050392;28;20443;-70
2023/08/22 03:43:22;;;;;;;0.73;0.30;;;;;;;25.06;55.24;101317.53;5050623;28;20377;-70
2023/08/22 03:45:48;;;;;;;2.15;0.60;;;;;;;25.08;55.30;101313.47;5049372;28;20502;-70
2023/08/22 03:48:14;;;;;;;1.98;0.65;;;;;;;25.10;55.28;101318.66;5050323;28;20545;-70
2023/08/22 03:50:40;;;;;;;1.63;0.60;;;;;;;25.08;55.24;101318.91;5050293;28;20385;-70
2023/08/22 03:53:06;;;;;;;2.05;0.60;;;;;;;25.07;55.13;101317.28;5050319;28;20837;-70
2023/08/22 03:55:32;;;;;;;1.33;0.50;;;;;;;25.00;55.21;101314.75;5050099;28;20396;-70
2023/08/22 03:57:58;;;;;;;2.03;0.87;;;;;;;24.99;55.72;101329.41;5030489;28;20382;-70
2023/08/22 04:00:25;;;;;;;2.35;1.20;;;;;;;25.02;55.43;101325.34;5031990;28;20378;-70
2023/08/22 04:02:55;;;;;;;1.75;0.60;;;;;;;24.96;55.51;101320.94;5049012;28;20389;-71
2023/08/22 04:05:21;;;;;;;1.98;0.60;;;;;;;24.99;55.48;101339.41;5052498;28;20784;-71
2023/08/22 04:07:47;;;;;;;1.33;0.60;;;;;;;24.98;55.36;101326.94;5052871;28;20377;-72
2023/08/22 04:10:12;;;;;;;1.63;0.65;;;;;;;24.86;55.92;101332.44;5054050;28;20471;-72
2023/08/22 04:12:38;;;;;;;1.60;0.50;;;;;;;24.80;56.00;101328.84;5052992;28;20446;-72
2023/08/22 04:15:04;;;;;;;1.13;0.63;;;;;;;24.87;56.03;101339.53;5053796;28;20388;-72
2023/08/22 04:17:29;;;;;;;1.42;0.70;;;;;;;25.02;55.71;101332.66;5053635;28;20446;-71
2023/08/22 04:19:54;;;;;;;1.00;0.50;;;;;;;25.00;55.79;101333.72;5053514;28;20383;-72
2023/08/22 04:22:20;;;;;;;6.90;2.00;;;;;;;25.04;55.64;101331.34;5035519;28;20698;-72
2023/08/22 04:24:45;;;;;;;0.93;0.60;;;;;;;25.00;55.96;101336.44;5053227;28;20376;-72
2023/08/22 04:27:11;;;;;;;0.98;0.47;;;;;;;25.13;55.51;101332.53;5053299;28;20412;-72
2023/08/22 04:29:36;;;;;;;1.70;1.20;;;;;;;25.16;55.29;101332.03;5052981;28;20397;-73
2023/08/22 04:32:03;;;;;;;1.53;0.90;;;;;;;25.18;55.35;101339.91;5035531;28;20388;-71
2023/08/22 04:34:29;;;;;;;1.50;0.60;;;;;;;25.16;55.34;101337.47;5052126;28;20381;-72
2023/08/22 04:36:55;;;;;;;1.03;0.43;;;;;;;25.22;55.25;101340.25;5053136;28;20380;-72
2023/08/22 04:39:20;;;;;;;1.40;0.60;;;;;;;25.32;55.02;101343.94;5052362;28;20446;-72
2023/08/22 04:41:46;;;;;;;0.83;0.40;;;;;;;25.36;55.01;101344.25;5052752;28;20380;-72
2023/08/22 04:44:11;;;;;;;1.13;0.40;;;;;;;25.46;54.84;101354.38;5052915;28;20723;-71
2023/08/22 04:46:37;;;;;;;0.97;0.40;;;;;;;25.55;54.68;101356.41;5051664;28;20412;-71
2023/08/22 04:49:02;;;;;;;1.00;0.50;;;;;;;25.58;54.54;101348.81;5051924;28;20399;-72
2023/08/22 04:51:28;;;;;;;0.63;0.37;;;;;;;25.60;54.40;101358.34;5052322;28;20388;-71
2023/08/22 04:53:54;;;;;;;0.90;0.45;;;;;;;25.61;54.64;101356.47;5052218;28;20385;-71
2023/08/22 04:56:20;;;;;;;0.70;0.50;;;;;;;25.53;54.73;101358.56;5052294;28;20387;-71
2023/08/22 04:58:46;;;;;;;1.20;0.63;;;;;;;25.53;54.96;101368.56;5052272;28;20873;-71
2023/08/22 05:01:11;;;;;;;0.63;0.40;;;;;;;25.52;55.08;101365.06;5052787;28;20450;-72
2023/08/22 05:03:37;;;;;;;1.25;0.55;;;;;;;25.67;54.72;101369.81;5052496;28;20484;-71
2023/08/22 05:06:02;;;;;;;0.83;0.40;;;;;;;25.67;54.85;101363.59;5052569;28;20428;-71
2023/08/22 05:08:28;;;;;;;1.10;0.67;;;;;;;25.87;54.26;101368.41;5052654;28;20734;-71
2023/08/22 05:10:53;;;;;;;0.65;0.40;;;;;;;25.97;54.24;101365.00;5052619;28;20395;-72
2023/08/22 05:13:19;;;;;;;1.03;0.50;;;;;;;26.02;54.09;101365.88;5052357;28;20412;-71
2023/08/22 05:15:44;;;;;;;0.40;0.30;;;;;;;26.12;54.13;101368.66;5051788;28;20441;-73
2023/08/22 05:18:10;;;;;;;1.00;0.50;;;;;;;26.22;53.68;101367.94;5052617;28;20377;-72
2023/08/22 05:20:35;;;;;;;0.40;0.30;;;;;;;26.26;54.01;101370.97;5052346;28;20373;-72
2023/08/22 05:23:01;;;;;;;0.70;0.43;;;;;;;26.40;53.72;101369.44;5052357;28;20437;-72
2023/08/22 05:25:26;;;;;;;0.40;0.30;;;;;;;26.52;53.46;101372.81;5052393;28;20454;-73
2023/08/22 05:27:52;;;;;;;0.70;0.30;;;;;;;26.73;52.89;101367.50;5052213;28;20395;-72
2023/08/22 05:30:17;;;;;;;1.10;0.55;;;;;;;26.85;52.57;101368.13;5052478;28;20380;-72
2023/08/22 05:32:43;;;;;;;0.80;0.40;;;;;;;26.85;52.85;101370.84;5052490;28;20391;-72
2023/08/22 05:35:09;;;;;;;1.10;0.32;;;;;;;26.96;52.79;101369.00;5044688;28;20376;-72
2023/08/22 05:37:35;;;;;;;1.17;0.50;;;;;;;26.99;52.55;101368.50;5052744;28;20373;-73
2023/08/22 05:40:00;;;;;;;1.20;0.50;;;;;;;26.97;52.40;101369.81;5052109;28;20387;-73
2023/08/22 05:42:26;;;;;;;0.87;0.50;;;;;;;27.13;52.27;101373.44;5051709;28;20711;-72
2023/08/22 05:44:51;;;;;;;0.50;0.30;;;;;;;27.19;52.21;101370.47;5034523;28;20381;-72
2023/08/22 05:47:17;;;;;;;0.80;0.40;;;;;;;27.34;51.93;101372.47;5052034;28;20473;-72
2023/08/22 05:49:43;;;;;;;0.73;0.45;;;;;;;27.34;51.72;101375.19;5051985;28;20706;-72
2023/08/22 05:52:09;;;;;;;0.88;0.43;;;;;;;27.42;51.71;101380.13;5057482;28;20444;-72
2023/08/22 05:54:35;;;;;;;1.35;0.55;;;;;;;27.51;51.56;101377.69;5059753;28;20381;-73
2023/08/22 05:57:00;;;;;;;0.57;0.33;;;;;;;27.56;51.55;101377.72;5066222;28;20383;-72
2023/08/22 05:59:26;;;;;;;1.10;0.57;;;;;;;27.77;51.25;101384.03;5050560;28;20989;-72
2023/08/22 06:01:52;;;;;;;1.30;0.50;;;;;;;27.77;51.00;101378.59;5035391;28;20490;-72
2023/08/22 06:04:17;;;;;;;0.77;0.38;;;;;;;27.87;51.02;101371.50;5039878;28;20413;-71
2023/08/22 06:06:44;;;;;;;0.47;0.40;;;;;;;27.87;50.66;101379.69;5040222;28;20542;-71
2023/08/22 06:09:10;;;;;;;0.88;0.43;;;;;;;27.98;50.49;101382.19;5038948;28;20401;-70
2023/08/22 06:11:35;;;;;;;0.88;0.40;;;;;;;28.10;50.23;101381.91;5038637;28;20399;-71
2023/08/22 06:14:01;;;;;;;0.73;0.53;;;;;;;28.26;49.96;101379.22;5041855;28;20411;-70
2023/08/22 06:16:26;;;;;;;1.50;0.80;;;;;;;28.34;49.89;101376.75;5040379;28;20424;-71
2023/08/22 06:18:51;;;;;;;0.87;0.43;;;;;;;28.38;49.73;101375.13;5040138;28;20400;-72
2023/08/22 06:21:17;;;;;;;0.93;0.53;;;;;;;28.71;49.27;101375.63;5039972;28;20493;-73
2023/08/22 06:23:42;;;;;;;1.05;0.40;;;;;;;28.88;48.82;101369.88;5048507;28;20387;-72
2023/08/22 06:26:10;;;;;;;0.90;0.35;;;;;;;29.09;48.07;101372.53;5047859;28;20976;-75
2023/08/22 06:28:35;;;;;;;0.40;0.25;;;;;;;29.19;47.97;101366.22;5048640;28;20893;-73
2023/08/22 06:31:02;;;;;;;0.80;0.50;;;;;;;29.22;47.49;101371.16;5049065;28;20388;-72
2023/08/22 06:33:27;;;;;;;0.90;0.55;;;;;;;29.21;47.79;101377.69;5050208;28;20399;-72
2023/08/22 06:35:53;;;;;;;1.10;0.43;;;;;;;29.32;47.72;101371.91;5051222;28;20384;-72
2023/08/22 06:38:18;;;;;;;1.85;0.70;;;;;;;29.27;47.06;101374.66;5050958;28;20974;-73
2023/08/22 06:40:44;;;;;;;0.98;0.47;;;;;;;29.31;47.29;101375.72;5050601;28;20381;-72
2023/08/22 06:43:09;;;;;;;0.57;0.40;;;;;;;29.44;46.86;101381.69;5050916;28;20381;-72
2023/08/22 06:45:35;;;;;;;0.87;0.40;;;;;;;29.29;46.31;101375.19;5050843;28;20381;-72
2023/08/22 06:48:00;;;;;;;0.83;0.43;;;;;;;29.39;46.60;101378.97;5050822;28;20392;-72
2023/08/22 06:50:26;;;;;;;0.90;0.50;;;;;;;29.49;45.91;101382.47;5050807;28;20471;-73
2023/08/22 06:52:51;;;;;;;1.83;0.63;;;;;;;29.44;45.84;101374.31;5050679;28;20865;-73
2023/08/22 06:55:17;;;;;;;0.90;0.45;;;;;;;29.65;45.33;101380.47;5050670;28;21068;-73
2023/08/22 06:57:42;;;;;;;1.10;0.40;;;;;;;29.69;45.30;101381.56;5050873;28;20377;-73
2023/08/22 07:00:13;;;;;;;0.73;0.50;;;;;;;29.83;45.47;101375.47;5050667;28;20376;-73
2023/08/22 07:02:40;;;;;;;1.50;0.40;;;;;;;29.86;45.03;101383.13;5050715;28;20377;-72
2023/08/22 07:05:07;;;;;;;1.00;0.50;;;;;;;29.57;45.27;101380.25;5050519;28;20440;-72
2023/08/22 07:07:32;;;;;;;0.52;0.40;;;;;;;29.70;45.45;101379.63;5050528;28;20400;-73
2023/08/22 07:09:58;;;;;;;0.60;0.50;;;;;;;29.82;45.08;101382.03;5050285;28;20392;-72
2023/08/22 07:12:23;;;;;;;0.67;0.50;;;;;;;30.02;44.91;101384.63;5050827;28;20373;-72
2023/08/22 07:14:49;;;;;;;0.40;0.30;;;;;;;30.10;44.75;101380.47;5050907;28;20388;-73
2023/08/22 07:17:14;;;;;;;1.33;0.50;;;;;;;30.23;44.39;101377.09;5050553;28;20818;-72
2023/08/22 07:19:39;;;;;;;0.83;0.47;;;;;;;30.38;44.08;101383.53;5050501;28;20373;-73
2023/08/22 07:22:05;;;;;;;1.23;0.53;;;;;;;30.54;44.25;101386.94;5050717;28;20810;-73
2023/08/22 07:24:30;;;;;;;1.23;0.50;;;;;;;30.66;43.79;101385.44;5050143;28;20380;-72
2023/08/22 07:26:56;;;;;;;0.80;0.47;;;;;;;30.55;43.08;101386.66;5055197;28;20458;-73
2023/08/22 07:29:21;;;;;;;1.50;0.70;;;;;;;30.54;42.88;101384.22;5050420;28;20384;-72
2023/08/22 07:31:47;;;;;;;0.90;0.50;;;;;;;30.78;42.53;101381.53;5056688;28;20383;-72
2023/08/22 07:34:12;;;;;;;1.10;0.73;;;;;;;30.76;42.49;101381.00;5069752;28;20384;-72
2023/08/22 07:36:38;;;;;;;0.60;0.40;;;;;;;30.90;42.14;101389.31;5070190;28;20378;-71
2023/08/22 07:39:03;;;;;;;1.00;0.43;;;;;;;30.92;41.93;101387.13;5069773;28;20390;-71
2023/08/22 07:41:28;;;;;;;0.93;0.50;;;;;;;31.18;41.75;101382.19;5064173;28;20390;-73
2023/08/22 07:43:54;;;;;;;0.90;0.40;;;;;;;31.47;41.58;101382.06;5059452;28;20497;-71
2023/08/22 07:46:20;;;;;;;0.98;0.47;;;;;;;31.53;40.76;101380.94;5063186;28;20407;-72
2023/08/22 07:48:45;;;;;;;0.52;0.40;;;;;;;31.33;40.33;101386.63;5050900;28;20388;-71
2023/08/22 07:51:11;;;;;;;0.97;0.40;;;;;;;31.19;40.85;101381.88;5057874;28;20470;-72
2023/08/22 07:53:36;;;;;;;0.50;0.50;;;;;;;31.13;39.78;101380.31;5075056;28;20751;-72
2023/08/22 07:56:02;;;;;;;0.33;0.33;;;;;;;31.14;40.29;101381.13;5076092;28;20413;-73
2023/08/22 07:58:27;;;;;;;0.80;0.40;;;;;;;31.47;40.26;101375.78;5075757;28;20393;-72
2023/08/22 08:00:53;;;;;;;0.30;0.28;;;;;;;31.62;39.60;101375.56;5075992;28;20726;-73
2023/08/22 08:03:18;;;;;;;0.63;0.47;;;;;;;31.42;39.06;101373.91;5074844;28;20392;-72
2023/08/22 08:05:44;;;;;;;1.00;0.73;;;;;;;31.53;39.15;101372.72;5075187;28;20418;-72
2023/08/22 08:08:09;;;;;;;2.03;1.30;;;;;;;31.51;38.65;101376.84;5076840;28;20404;-72
2023/08/22 08:10:38;;;;;;;1.17;0.60;;;;;;;31.39;39.24;101378.06;5073772;28;20370;-72
2023/08/22 08:13:04;;;;;;;1.10;0.60;;;;;;;31.64;38.88;101376.13;5073655;28;20452;-73
2023/08/22 08:15:30;;;;;;;1.00;0.50;;;;;;;31.85;38.24;101368.38;5074130;28;20450;-73
2023/08/22 08:17:58;;;;;;;0.90;0.60;;;;;;;32.13;38.72;101374.81;5074249;28;20374;-73
2023/08/22 08:20:24;;;;;;;1.13;0.93;;;;;;;32.18;38.18;101374.75;5073807;28;20367;-72
2023/08/22 08:22:50;;;;;;;0.88;0.40;;;;;;;32.19;38.70;101368.13;5073159;28;20379;-73
2023/08/22 08:25:15;;;;;;;0.97;0.50;;;;;;;32.15;38.15;101374.53;5073355;28;20584;-72
2023/08/22 08:27:41;;;;;;;0.77;0.40;;;;;;;32.18;38.42;101374.75;5055841;28;20403;-72
2023/08/22 08:30:07;;;;;;;2.00;0.90;;;;;;;32.28;38.54;101372.94;5073327;28;20371;-72
2023/08/22 08:32:33;;;;;;;0.63;0.40;;;;;;;32.27;38.75;101365.81;5073239;28;20391;-73
2023/08/22 08:34:58;;;;;;;0.70;0.40;;;;;;;32.52;38.20;101364.53;5073448;28;20383;-73
2023/08/22 08:37:24;;;;;;;0.43;0.30;;;;;;;32.77;37.90;101366.00;5073488;28;20386;-72
2023/08/22 08:39:49;;;;;;;1.40;0.70;;;;;;;32.81;38.36;101357.97;5073256;28;20413;-73
2023/08/22 08:42:15;;;;;;;0.60;0.40;;;;;;;32.92;38.23;101370.41;5073165;28;20386;-73
2023/08/22 08:44:41;;;;;;;0.77;0.33;;;;;;;33.09;37.88;101369.78;5073327;28;20367;-74
2023/08/22 08:47:08;;;;;;;0.73;0.30;;;;;;;33.12;37.97;101370.00;5072962;28;20762;-72
2023/08/22 08:49:34;;;;;;;0.75;0.52;;;;;;;33.14;38.04;101366.94;5071982;28;20363;-72
2023/08/22 08:52:08;;;;;;;0.60;0.47;;;;;;;33.17;37.57;101369.09;5054848;28;20385;-73
2023/08/22 08:54:35;;;;;;;1.63;0.68;;;;;;;33.21;37.19;101369.28;5073227;28;20394;-73
2023/08/22 08:57:02;;;;;;;0.47;0.37;;;;;;;33.25;37.20;101362.84;5073045;28;20752;-73
2023/08/22 08:59:29;;;;;;;0.63;0.52;;;;;;;33.27;36.88;101354.31;5072972;28;20375;-72
2023/08/22 09:01:54;;;;;;;1.00;0.55;;;;;;;33.32;36.97;101363.25;5072838;28;20469;-72
2023/08/22 09:04:20;;;;;;;0.50;0.40;;;;;;;33.44;36.75;101362.72;5072795;28;20490;-73
2023/08/22 09:06:47;;;;;;;0.88;0.50;;;;;;;33.59;36.48;101361.56;5072315;28;20399;-73
2023/08/22 09:09:13;;;;;;;1.08;0.68;;;;;;;33.57;36.61;101360.25;5072719;28;20382;-72
2023/08/22 09:11:47;;;;;;;1.23;0.57;;;;;;;33.71;36.97;101363.78;5072773;28;20875;-73
2023/08/22 09:14:19;;;;;;;1.15;0.70;;;;;;;33.87;36.17;101364.22;5072478;28;20395;-73
2023/08/22 09:16:44;;;;;;;1.50;0.80;;;;;;;33.89;36.51;101353.75;5072451;28;20444;-72
2023/08/22 09:19:11;;;;;;;0.70;0.43;;;;;;;33.94;35.95;101352.78;5072635;28;20379;-73
2023/08/22 09:21:37;;;;;;;0.75;0.60;;;;;;;33.87;36.27;101345.78;5072236;28;20375;-73
2023/08/22 09:24:09;;;;;;;1.00;0.60;;;;;;;34.08;35.95;101343.31;5040095;28;20409;-72
2023/08/22 09:26:37;;;;;;;0.93;0.40;;;;;;;34.11;35.96;101325.38;5041822;28;20507;-72
2023/08/22 09:29:06;;;;;;;0.60;0.35;;;;;;;34.18;35.68;101342.28;5041733;28;20403;-72
2023/08/22 09:31:35;;;;;;;0.90;0.40;;;;;;;34.24;35.86;101332.75;5037641;28;20820;-72
2023/08/22 09:34:07;;;;;;;1.73;0.80;;;;;;;34.18;35.61;101328.53;5040535;28;20388;-72
2023/08/22 09:36:33;;;;;;;0.68;0.50;;;;;;;34.17;35.56;101328.81;5041324;28;20827;-72
2023/08/22 09:38:58;;;;;;;1.70;0.70;;;;;;;34.17;35.24;101328.81;5040026;28;20396;-72
2023/08/22 09:41:26;;;;;;;0.53;0.30;;;;;;;34.14;35.43;101323.94;5038749;28;20401;-73
2023/08/22 09:43:54;;;;;;;0.80;0.50;;;;;;;34.29;35.07;101331.84;5040892;28;20393;-73
2023/08/22 09:46:23;;;;;;;0.75;0.43;;;;;;;34.41;35.01;101328.47;5021718;28;20548;-73
2023/08/22 09:48:50;;;;;;;0.80;0.80;;;;;;;34.49;35.07;101313.94;5039823;28;20550;-72
2023/08/22 09:51:19;;;;;;;0.40;0.30;;;;;;;34.64;34.60;101319.00;5042531;28;20397;-71
2023/08/22 09:53:59;;;;;;;1.45;0.60;;;;;;;34.42;34.24;101308.09;5046799;28;20706;-73
2023/08/22 09:56:25;;;;;;;1.35;0.77;;;;;;;34.48;33.87;101317.81;5047478;28;21131;-73
2023/08/22 09:58:52;;;;;;;1.77;0.80;;;;;;;34.61;33.94;101316.06;5047218;28;20396;-73
2023/08/22 10:01:40;;;;;;;0.47;0.35;;;;;;;34.80;33.91;101315.84;5047211;28;20983;-72
2023/08/22 10:04:06;;;;;;;0.77;0.40;;;;;;;34.84;33.89;101312.16;5049149;28;20380;-73
2023/08/22 10:06:33;;;;;;;0.47;0.38;;;;;;;34.93;33.77;101314.91;5050762;28;20401;-74
2023/08/22 10:09:07;;;;;;;0.63;0.32;;;;;;;35.03;33.83;101311.84;5050275;28;20412;-74
2023/08/22 10:11:35;;;;;;;0.85;0.50;;;;;;;35.10;33.87;101310.56;5049796;28;20881;-73
2023/08/22 10:14:01;;;;;;;0.67;0.40;;;;;;;35.10;33.33;101316.09;5050371;28;20458;-73
2023/08/22 10:16:30;;;;;;;0.90;0.60;;;;;;;35.15;33.09;101307.63;5060098;28;20391;-73
2023/08/22 10:19:02;;;;;;;1.20;0.50;;;;;;;35.26;33.45;101311.75;5050215;28;20385;-73
2023/08/22 10:21:32;;;;;;;0.80;0.40;;;;;;;35.31;33.25;101299.75;5054821;28;20405;-74
2023/08/22 10:23:59;;;;;;;0.88;0.43;;;;;;;35.38;33.08;101306.41;5044957;28;20381;-73
2023/08/22 10:26:47;;;;;;;0.20;0.20;;;;;;;35.43;33.14;101305.41;5050119;28;20719;-73
2023/08/22 10:29:19;;;;;;;1.13;0.60;;;;;;;35.45;33.10;101303.13;5050867;28;20376;-73
2023/08/22 10:32:19;;;;;;;0.40;0.30;;;;;;;35.51;32.93;101296.34;5050048;28;20787;-73
2023/08/22 10:34:45;;;;;;;1.20;0.90;;;;;;;35.57;33.36;101291.47;5056287;28;20381;-73
2023/08/22 10:37:25;;;;;;;0.23;0.23;;;;;;;35.64;33.17;101289.03;5050045;28;20388;-73
2023/08/22 10:39:50;;;;;;;0.57;0.40;;;;;;;35.69;32.62;101291.63;5063674;28;20376;-73
2023/08/22 10:42:21;;;;;;;0.50;0.50;;;;;;;35.70;32.50;101279.47;5056178;28;21001;-75
2023/08/22 10:44:57;;;;;;;0.57;0.30;;;;;;;35.85;32.26;101283.63;5048149;28;20403;-73
2023/08/22 10:47:26;;;;;;;0.30;0.22;;;;;;;35.88;32.12;101277.47;5048081;28;20412;-71
2023/08/22 10:49:53;;;;;;;0.73;0.40;;;;;;;35.90;31.97;101280.72;5048394;28;20373;-72
2023/08/22 10:52:32;;;;;;;0.70;0.45;;;;;;;35.93;32.03;101274.53;5048063;28;20460;-71
2023/08/22 10:54:58;;;;;;;0.90;0.50;;;;;;;35.98;31.96;101276.31;5044857;28;20392;-73
2023/08/22 10:57:24;;;;;;;0.73;0.53;;;;;;;35.93;31.97;101273.75;5050112;28;20369;-75
2023/08/22 10:59:59;;;;;;;0.38;0.20;;;;;;;36.08;32.06;101270.44;5048306;28;20496;-72
2023/08/22 11:02:30;;;;;;;1.20;0.70;;;;;;;36.07;32.75;101273.50;5048452;28;20399;-73
2023/08/22 11:05:05;;;;;;;0.80;0.57;;;;;;;35.98;31.73;101268.06;5049825;28;20494;-73
2023/08/22 11:07:31;;;;;;;0.32;0.30;;;;;;;36.14;31.80;101277.41;5044753;28;20896;-73
2023/08/22 11:09:59;;;;;;;0.70;0.40;;;;;;;36.14;32.05;101266.38;5048042;28;20381;-73
2023/08/22 11:12:27;;;;;;;0.75;0.43;;;;;;;36.14;32.21;101262.78;5048937;28;20381;-73
2023/08/22 11:14:54;;;;;;;1.20;0.70;;;;;;;36.04;31.44;101258.44;5048729;28;21891;-72
2023/08/22 11:17:21;;;;;;;0.93;0.50;;;;;;;36.16;31.80;101258.56;5049438;28;20384;-73
2023/08/22 11:19:48;;;;;;;0.30;0.30;;;;;;;36.22;30.88;101258.41;5050138;28;20460;-74
2023/08/22 11:22:14;;;;;;;0.60;0.60;;;;;;;36.27;31.26;101261.78;5050731;28;20752;-75